createdAt,value
2022-11-13T00:02:36.314Z,11.89
2022-11-13T00:05:24.937Z,11.84
2022-11-13T00:08:13.605Z,11.85
2022-11-13T00:11:06.655Z,11.86
2022-11-13T00:13:55.421Z,11.83
2022-11-13T00:16:44.389Z,11.71
2022-11-13T00:19:32.650Z,11.69
2022-11-13T00:22:21.325Z,11.61
2022-11-13T00:25:10.387Z,11.52
2022-11-13T00:27:58.944Z,11.49
2022-11-13T00:30:47.622Z,11.35
2022-11-13T00:34:05.246Z,11.27
2022-11-13T00:36:27.542Z,11.29
2022-11-13T00:39:16.260Z,11.20
2022-11-13T00:42:04.749Z,11.12
2022-11-13T00:44:53.237Z,11.11
2022-11-13T00:47:41.992Z,10.96
2022-11-13T00:50:30.626Z,11.04
2022-11-13T00:53:19.423Z,11.07
2022-11-13T00:56:08.023Z,11.16
2022-11-13T00:58:56.851Z,11.14
2022-11-13T01:01:45.399Z,11.19
2022-11-13T01:04:33.792Z,11.23
2022-11-13T01:07:22.272Z,11.15
2022-11-13T01:10:10.883Z,11.16
2022-11-13T01:13:00.209Z,11.19
2022-11-13T01:15:48.615Z,11.18
2022-11-13T01:18:37.115Z,11.01
2022-11-13T01:21:26.670Z,10.98
2022-11-13T01:24:15.396Z,10.93
2022-11-13T01:27:04.110Z,10.93
2022-11-13T01:29:52.646Z,11.05
2022-11-13T01:32:41.198Z,11.02
2022-11-13T01:35:29.803Z,10.96
2022-11-13T01:38:18.437Z,10.98
2022-11-13T01:41:07.968Z,10.87
2022-11-13T01:43:57.056Z,10.94
2022-11-13T01:46:47.262Z,10.79
2022-11-13T01:49:37.258Z,10.82
2022-11-13T01:52:33.599Z,10.83
2022-11-13T01:55:22.731Z,10.87
2022-11-13T01:58:12.207Z,10.83
2022-11-13T02:01:00.672Z,10.96
2022-11-13T02:03:49.112Z,10.89
2022-11-13T02:06:39.397Z,10.90
2022-11-13T02:09:29.982Z,10.83
2022-11-13T02:12:19.849Z,10.85
2022-11-13T02:15:10.780Z,11.03
2022-11-13T02:18:01.462Z,10.93
2022-11-13T02:21:03.593Z,10.91
2022-11-13T02:24:11.499Z,10.91
2022-11-13T02:27:01.754Z,10.97
2022-11-13T02:29:50.482Z,11.03
2022-11-13T02:32:40.514Z,10.96
2022-11-13T02:35:30.532Z,10.82
2022-11-13T02:38:19.214Z,10.80
2022-11-13T02:41:07.598Z,10.73
2022-11-13T02:43:56.414Z,10.78
2022-11-13T02:46:45.130Z,10.88
2022-11-13T02:49:33.585Z,10.85
2022-11-13T02:52:21.876Z,10.81
2022-11-13T02:55:10.462Z,10.70
2022-11-13T02:57:59.290Z,10.66
2022-11-13T03:00:48.088Z,10.57
2022-11-13T03:06:26.806Z,10.21
2022-11-13T03:09:15.497Z,10.09
2022-11-13T03:12:04.253Z,9.90
2022-11-13T03:14:52.977Z,9.76
2022-11-13T03:17:41.513Z,9.67
2022-11-13T03:20:30.057Z,9.45
2022-11-13T03:23:18.534Z,9.37
2022-11-13T03:26:08.188Z,9.28
2022-11-13T03:28:56.962Z,9.26
2022-11-13T03:31:45.492Z,9.26
2022-11-13T03:34:33.940Z,9.30
2022-11-13T03:37:22.775Z,9.26
2022-11-13T03:40:11.691Z,9.10
2022-11-13T03:43:00.212Z,9.08
2022-11-13T03:45:48.889Z,9.05
2022-11-13T03:48:37.296Z,9.00
2022-11-13T03:51:25.680Z,8.99
2022-11-13T03:54:14.270Z,9.05
2022-11-13T03:57:03.128Z,9.18
2022-11-13T03:59:51.672Z,9.34
2022-11-13T04:02:40.405Z,9.49
2022-11-13T04:05:28.887Z,9.63
2022-11-13T04:08:17.786Z,9.75
2022-11-13T04:11:07.244Z,9.69
2022-11-13T04:13:55.893Z,9.78
2022-11-13T04:16:44.479Z,9.83
2022-11-13T04:19:32.885Z,9.84
2022-11-13T04:22:21.328Z,9.93
2022-11-13T04:25:10.009Z,9.99
2022-11-13T04:27:58.410Z,10.02
2022-11-13T04:30:47.556Z,9.98
2022-11-13T04:33:35.940Z,10.08
2022-11-13T04:36:24.562Z,10.12
2022-11-13T04:39:13.167Z,10.03
2022-11-13T04:42:19.427Z,9.96
2022-11-13T04:45:08.183Z,9.92
2022-11-13T04:47:56.908Z,9.82
2022-11-13T04:50:45.401Z,9.64
2022-11-13T04:53:34.870Z,9.64
2022-11-13T04:56:23.526Z,9.70
2022-11-13T04:59:11.992Z,9.78
2022-11-13T05:02:00.895Z,9.78
2022-11-13T05:04:49.600Z,9.73
2022-11-13T05:07:38.263Z,9.79
2022-11-13T05:10:26.835Z,9.81
2022-11-13T05:13:15.697Z,9.81
2022-11-13T05:16:05.642Z,9.82
2022-11-13T05:18:54.790Z,9.90
2022-11-13T05:21:43.546Z,9.95
2022-11-13T05:24:32.231Z,9.94
2022-11-13T05:27:21.010Z,9.89
2022-11-13T05:30:10.019Z,9.71
2022-11-13T05:32:58.775Z,9.58
2022-11-13T05:35:47.340Z,9.54
2022-11-13T05:38:36.471Z,9.48
2022-11-13T05:41:25.420Z,9.56
2022-11-13T05:44:13.757Z,9.58
2022-11-13T05:47:02.570Z,9.74
2022-11-13T05:49:51.524Z,10.30
2022-11-13T05:52:40.147Z,10.43
2022-11-13T05:55:28.962Z,10.39
2022-11-13T05:58:17.497Z,10.33
2022-11-13T06:01:16.398Z,10.34
2022-11-13T06:04:05.347Z,10.16
2022-11-13T06:06:54.014Z,9.84
2022-11-13T06:09:42.812Z,9.50
2022-11-13T06:12:32.010Z,9.38
2022-11-13T06:15:20.757Z,9.48
2022-11-13T06:18:09.687Z,9.43
2022-11-13T06:20:59.579Z,9.38
2022-11-13T06:23:48.135Z,9.34
2022-11-13T06:26:37.633Z,9.30
2022-11-13T06:29:26.164Z,9.23
2022-11-13T06:32:15.534Z,9.35
2022-11-13T06:35:03.808Z,9.40
2022-11-13T06:37:52.306Z,9.43
2022-11-13T06:40:40.878Z,9.66
2022-11-13T06:43:29.433Z,9.80
2022-11-13T06:46:19.382Z,9.92
2022-11-13T06:49:07.498Z,9.99
2022-11-13T06:51:56.321Z,10.00
2022-11-13T06:54:45.109Z,10.02
2022-11-13T06:57:33.670Z,10.15
2022-11-13T07:00:22.535Z,10.36
2022-11-13T07:03:18.406Z,10.50
2022-11-13T07:06:08.548Z,10.43
2022-11-13T07:08:57.301Z,10.42
2022-11-13T07:11:45.823Z,10.64
2022-11-13T07:14:34.709Z,10.61
2022-11-13T07:17:23.253Z,10.45
2022-11-13T07:20:12.053Z,10.30
2022-11-13T07:23:01.660Z,10.24
2022-11-13T07:25:50.484Z,10.07
2022-11-13T07:28:39.441Z,9.88
2022-11-13T07:31:28.015Z,9.81
2022-11-13T07:34:16.447Z,10.00
2022-11-13T07:37:06.888Z,10.09
2022-11-13T07:39:55.823Z,10.06
2022-11-13T07:42:44.510Z,9.92
2022-11-13T07:45:33.080Z,9.96
2022-11-13T07:48:22.330Z,10.00
2022-11-13T07:51:11.269Z,10.23
2022-11-13T07:53:59.812Z,10.50
2022-11-13T07:56:48.870Z,10.68
2022-11-13T07:59:37.624Z,11.01
2022-11-13T08:02:26.944Z,10.87
2022-11-13T08:05:16.051Z,10.69
2022-11-13T08:08:04.799Z,10.50
2022-11-13T08:10:53.452Z,10.40
2022-11-13T08:13:42.487Z,10.31
2022-11-13T08:16:31.654Z,10.28
2022-11-13T08:19:20.441Z,10.12
2022-11-13T08:22:08.922Z,10.14
2022-11-13T08:24:58.216Z,10.15
2022-11-13T08:27:46.722Z,10.15
2022-11-13T08:30:35.641Z,10.06
2022-11-13T08:33:24.578Z,10.06
2022-11-13T08:36:13.101Z,10.05
2022-11-13T08:39:02.587Z,9.99
2022-11-13T08:41:51.331Z,10.02
2022-11-13T08:44:40.257Z,10.04
2022-11-13T08:47:29.823Z,10.06
2022-11-13T08:50:18.406Z,10.22
2022-11-13T08:53:07.276Z,10.27
2022-11-13T08:55:55.858Z,10.40
2022-11-13T08:58:44.821Z,10.46
2022-11-13T09:01:33.555Z,10.42
2022-11-13T09:04:22.520Z,10.42
2022-11-13T09:07:11.673Z,10.53
2022-11-13T09:10:00.476Z,10.68
2022-11-13T09:12:48.791Z,10.70
2022-11-13T09:15:38.659Z,10.67
2022-11-13T09:18:28.065Z,10.65
2022-11-13T09:21:17.087Z,10.64
2022-11-13T09:24:06.568Z,10.59
2022-11-13T09:26:55.558Z,10.47
2022-11-13T09:29:44.308Z,10.52
2022-11-13T09:32:33.248Z,10.62
2022-11-13T09:35:24.432Z,10.64
2022-11-13T09:38:16.535Z,10.62
2022-11-13T09:41:07.186Z,10.48
2022-11-13T09:44:00.038Z,10.49
2022-11-13T09:46:49.323Z,10.63
2022-11-13T09:49:39.445Z,10.66
2022-11-13T09:52:29.424Z,10.62
2022-11-13T09:55:19.813Z,10.50
2022-11-13T09:58:09.823Z,10.55
2022-11-13T10:00:59.980Z,10.59
2022-11-13T10:04:05.245Z,10.41
2022-11-13T10:06:47.806Z,10.40
2022-11-13T10:09:38.275Z,10.39
2022-11-13T10:12:28.352Z,10.46
2022-11-13T10:15:18.428Z,10.33
2022-11-13T10:18:08.828Z,10.08
2022-11-13T10:21:06.792Z,9.86
2022-11-13T10:23:54.167Z,9.62
2022-11-13T10:26:42.773Z,9.40
2022-11-13T10:29:31.657Z,9.26
2022-11-13T10:32:25.016Z,9.12
2022-11-13T10:35:15.240Z,9.11
2022-11-13T10:38:08.551Z,8.99
2022-11-13T10:40:57.345Z,8.90
2022-11-13T10:43:56.702Z,8.95
2022-11-13T10:46:45.104Z,9.05
2022-11-13T10:49:34.293Z,9.06
2022-11-13T10:52:25.079Z,9.05
2022-11-13T10:55:18.533Z,9.09
2022-11-13T10:58:14.996Z,8.99
2022-11-13T11:01:05.273Z,8.94
2022-11-13T11:03:54.034Z,8.81
2022-11-13T11:09:33.669Z,8.64
2022-11-13T11:12:30.143Z,8.57
2022-11-13T11:15:19.332Z,8.74
2022-11-13T11:18:09.126Z,8.89
2022-11-13T11:21:02.067Z,9.15
2022-11-13T11:23:56.422Z,9.31
2022-11-13T11:26:46.933Z,9.41
2022-11-13T11:29:42.842Z,9.52
2022-11-13T11:32:37.307Z,9.73
2022-11-13T11:35:27.392Z,9.69
2022-11-13T11:38:23.635Z,9.61
2022-11-13T11:41:16.792Z,9.58
2022-11-13T11:44:21.819Z,9.48
2022-11-13T11:47:15.174Z,9.28
2022-11-13T11:50:04.385Z,9.05
2022-11-13T11:52:54.181Z,8.94
2022-11-13T11:55:44.295Z,8.84
2022-11-13T11:58:34.669Z,8.75
2022-11-13T12:01:41.445Z,8.64
2022-11-13T12:04:49.920Z,8.61
2022-11-13T12:07:58.039Z,8.62
2022-11-13T12:10:48.124Z,8.57
2022-11-13T12:13:53.680Z,8.47
2022-11-13T12:16:46.822Z,8.37
2022-11-13T12:19:39.918Z,8.43
2022-11-13T12:22:46.801Z,8.37
2022-11-13T12:25:54.820Z,8.52
2022-11-13T12:28:53.938Z,8.64
2022-11-13T12:31:56.081Z,8.61
2022-11-13T12:34:55.119Z,8.58
2022-11-13T12:37:45.195Z,8.56
2022-11-13T12:40:44.868Z,8.56
2022-11-13T12:43:44.491Z,8.61
2022-11-13T12:46:37.283Z,8.62
2022-11-13T12:49:30.175Z,8.63
2022-11-13T12:52:20.728Z,8.52
2022-11-13T12:55:10.989Z,8.40
2022-11-13T12:58:10.550Z,8.34
2022-11-13T13:01:03.619Z,8.42
2022-11-13T13:03:56.541Z,8.38
2022-11-13T13:06:53.372Z,8.29
2022-11-13T13:09:43.463Z,8.30
2022-11-13T13:12:37.026Z,8.22
2022-11-13T13:15:27.098Z,8.21
2022-11-13T13:18:19.963Z,8.18
2022-11-13T13:21:10.137Z,8.10
2022-11-13T13:24:00.560Z,8.11
2022-11-13T13:26:49.214Z,8.04
2022-11-13T13:29:39.276Z,7.93
2022-11-13T13:32:38.407Z,7.83
2022-11-13T13:35:28.121Z,7.87
2022-11-13T13:38:18.535Z,7.92
2022-11-13T13:41:08.605Z,7.94
2022-11-13T13:44:04.837Z,7.87
2022-11-13T13:46:53.538Z,7.85
2022-11-13T13:49:42.183Z,7.80
2022-11-13T13:52:32.820Z,7.73
2022-11-13T13:55:22.905Z,7.70
2022-11-13T13:58:13.021Z,7.57
2022-11-13T14:01:18.467Z,7.58
2022-11-13T14:03:54.149Z,7.49
2022-11-13T14:06:50.013Z,7.46
2022-11-13T14:09:39.101Z,7.54
2022-11-13T14:12:27.616Z,7.54
2022-11-13T14:15:20.873Z,7.56
2022-11-13T14:21:00.667Z,7.55
2022-11-13T14:23:53.560Z,7.61
2022-11-13T14:26:42.755Z,7.61
2022-11-13T14:29:33.324Z,7.65
2022-11-13T14:32:26.563Z,7.64
2022-11-13T14:35:33.050Z,7.62
2022-11-13T14:38:23.049Z,7.68
2022-11-13T14:41:24.843Z,7.73
2022-11-13T14:44:13.960Z,7.67
2022-11-13T14:47:08.347Z,7.66
2022-11-13T14:49:56.872Z,7.72
2022-11-13T14:52:46.969Z,7.74
2022-11-13T14:55:37.184Z,7.72
2022-11-13T14:58:30.205Z,7.70
2022-11-13T15:01:23.312Z,7.71
2022-11-13T15:04:11.982Z,7.73
2022-11-13T15:07:01.937Z,7.74
2022-11-13T15:09:50.782Z,7.75
2022-11-13T15:12:39.680Z,7.74
2022-11-13T15:15:30.290Z,7.85
2022-11-13T15:18:20.173Z,7.83
2022-11-13T15:21:09.219Z,7.78
2022-11-13T15:23:57.903Z,7.78
2022-11-13T15:26:46.791Z,7.73
2022-11-13T15:29:35.228Z,7.82
2022-11-13T15:32:24.101Z,7.78
2022-11-13T15:35:14.449Z,7.79
2022-11-13T15:38:03.596Z,7.79
2022-11-13T15:40:52.204Z,7.66
2022-11-13T15:43:42.940Z,7.69
2022-11-13T15:46:31.575Z,7.73
2022-11-13T15:49:20.650Z,7.66
2022-11-13T15:52:10.360Z,7.72
2022-11-13T15:54:59.638Z,7.62
2022-11-13T15:57:48.210Z,7.58
2022-11-13T16:00:38.216Z,7.55
2022-11-13T16:03:26.873Z,7.54
2022-11-13T16:06:20.231Z,7.46
2022-11-13T16:09:10.432Z,7.52
2022-11-13T16:12:00.723Z,7.55
2022-11-13T16:14:49.367Z,7.47
2022-11-13T16:17:40.000Z,7.46
2022-11-13T16:20:28.704Z,7.54
2022-11-13T16:23:18.286Z,7.53
2022-11-13T16:26:07.223Z,7.51
2022-11-13T16:31:46.118Z,7.43
2022-11-13T16:34:35.056Z,7.44
2022-11-13T16:37:24.897Z,7.43
2022-11-13T16:40:17.909Z,7.43
2022-11-13T16:43:06.135Z,7.44
2022-11-13T16:45:54.869Z,7.45
2022-11-13T16:48:43.439Z,7.44
2022-11-13T16:51:32.328Z,7.50
2022-11-13T16:54:21.266Z,7.49
2022-11-13T16:57:11.212Z,7.37
2022-11-13T16:59:59.960Z,7.33
2022-11-13T17:02:49.950Z,7.15
2022-11-13T17:05:38.702Z,7.07
2022-11-13T17:08:27.458Z,7.18
2022-11-13T17:11:16.229Z,7.21
2022-11-13T17:14:04.808Z,7.19
2022-11-13T17:16:53.604Z,7.16
2022-11-13T17:19:44.278Z,7.24
2022-11-13T17:22:33.142Z,7.15
2022-11-13T17:25:23.421Z,7.23
2022-11-13T17:28:12.328Z,7.26
2022-11-13T17:31:04.979Z,7.16
2022-11-13T17:33:54.104Z,7.13
2022-11-13T17:36:42.894Z,7.13
2022-11-13T17:39:31.617Z,7.14
2022-11-13T17:42:20.542Z,7.06
2022-11-13T17:45:09.727Z,7.11
2022-11-13T17:47:59.304Z,7.07
2022-11-13T17:50:49.562Z,7.03
2022-11-13T17:53:37.864Z,7.07
2022-11-13T17:56:26.445Z,7.04
2022-11-13T17:59:15.013Z,7.13
2022-11-13T18:02:03.874Z,7.01
2022-11-13T18:04:54.119Z,7.02
2022-11-13T18:07:42.872Z,6.99
2022-11-13T18:10:31.882Z,6.95
2022-11-13T18:13:20.378Z,7.02
2022-11-13T18:16:09.792Z,6.94
2022-11-13T18:19:00.585Z,6.92
2022-11-13T18:21:49.370Z,6.90
2022-11-13T18:24:38.135Z,6.83
2022-11-13T18:27:26.640Z,6.82
2022-11-13T18:30:15.069Z,6.87
2022-11-13T18:33:04.032Z,6.85
2022-11-13T18:35:54.151Z,6.79
2022-11-13T18:38:43.828Z,6.74
2022-11-13T18:41:33.165Z,6.72
2022-11-13T18:44:21.711Z,6.66
2022-11-13T18:47:10.128Z,6.68
2022-11-13T18:49:59.125Z,6.64
2022-11-13T18:52:47.701Z,6.58
2022-11-13T18:55:36.495Z,6.50
2022-11-13T18:58:24.904Z,6.47
2022-11-13T19:01:21.926Z,6.44
2022-11-13T19:04:27.516Z,6.47
2022-11-13T19:07:02.605Z,6.50
2022-11-13T19:09:51.617Z,6.46
2022-11-13T19:12:40.147Z,6.45
2022-11-13T19:15:29.292Z,6.53
2022-11-13T19:18:18.362Z,6.53
2022-11-13T19:21:08.893Z,6.48
2022-11-13T19:23:58.546Z,6.48
2022-11-13T19:26:47.034Z,6.49
2022-11-13T19:29:35.511Z,6.44
2022-11-13T19:32:24.300Z,6.37
2022-11-13T19:35:12.796Z,6.17
2022-11-13T19:38:02.538Z,6.11
2022-11-13T19:40:52.021Z,6.02
2022-11-13T19:43:41.855Z,5.97
2022-11-13T19:46:32.199Z,5.87
2022-11-13T19:49:20.874Z,5.81
2022-11-13T19:52:09.559Z,5.75
2022-11-13T19:54:58.447Z,5.69
2022-11-13T19:57:47.161Z,5.80
2022-11-13T20:00:35.616Z,5.80
2022-11-13T20:03:26.082Z,5.93
2022-11-13T20:06:15.612Z,6.00
2022-11-13T20:09:04.459Z,5.97
2022-11-13T20:11:53.173Z,5.97
2022-11-13T20:14:41.688Z,6.01
2022-11-13T20:17:31.878Z,5.97
2022-11-13T20:20:20.906Z,5.98
2022-11-13T20:23:09.763Z,6.01
2022-11-13T20:25:59.873Z,6.03
2022-11-13T20:28:48.458Z,6.07
2022-11-13T20:31:37.226Z,6.24
2022-11-13T20:34:26.183Z,6.21
2022-11-13T20:37:14.834Z,6.24
2022-11-13T20:40:03.397Z,6.14
2022-11-13T20:42:51.950Z,6.12
2022-11-13T20:45:40.567Z,5.95
2022-11-13T20:48:29.610Z,5.85
2022-11-13T20:51:22.615Z,5.70
2022-11-13T20:54:11.280Z,5.68
2022-11-13T20:57:00.056Z,5.52
2022-11-13T20:59:48.826Z,5.58
2022-11-13T21:02:37.336Z,5.60
2022-11-13T21:05:26.132Z,5.54
2022-11-13T21:08:14.687Z,5.45
2022-11-13T21:11:04.139Z,5.38
2022-11-13T21:13:53.618Z,5.41
2022-11-13T21:16:42.350Z,5.39
2022-11-13T21:19:30.731Z,5.40
2022-11-13T21:22:19.234Z,5.40
2022-11-13T21:25:07.967Z,5.45
2022-11-13T21:27:56.897Z,5.33
2022-11-13T21:30:45.549Z,5.27
2022-11-13T21:33:38.690Z,5.30
2022-11-13T21:36:27.876Z,5.17
2022-11-13T21:39:16.358Z,5.16
2022-11-13T21:42:05.088Z,5.19
2022-11-13T21:44:53.862Z,5.11
2022-11-13T21:47:43.465Z,5.06
2022-11-13T21:50:32.338Z,4.84
2022-11-13T21:53:22.141Z,4.82
2022-11-13T21:56:15.370Z,4.78
2022-11-13T21:59:00.646Z,4.68
2022-11-13T22:01:49.544Z,4.69
2022-11-13T22:04:38.722Z,4.59
2022-11-13T22:07:27.460Z,4.67
2022-11-13T22:10:16.288Z,4.63
2022-11-13T22:13:04.797Z,4.63
2022-11-13T22:15:53.177Z,4.63
2022-11-13T22:18:41.609Z,4.57
2022-11-13T22:21:40.179Z,4.60
2022-11-13T22:24:29.654Z,4.60
2022-11-13T22:27:18.502Z,4.54
2022-11-13T22:30:07.350Z,4.33
2022-11-13T22:32:56.456Z,4.34
2022-11-13T22:35:45.139Z,4.37
2022-11-13T22:38:37.064Z,4.38
2022-11-13T22:41:28.358Z,4.40
2022-11-13T22:44:16.564Z,4.40
2022-11-13T22:47:05.373Z,4.39
2022-11-13T22:49:54.161Z,4.21
2022-11-13T22:52:42.929Z,4.12
2022-11-13T22:55:32.229Z,4.00
2022-11-13T22:58:20.938Z,3.94
2022-11-13T23:01:11.104Z,3.89
2022-11-13T23:04:00.992Z,3.90
2022-11-13T23:06:49.704Z,3.92
2022-11-13T23:09:38.359Z,3.94
2022-11-13T23:12:27.421Z,4.01
2022-11-13T23:15:16.211Z,4.05
2022-11-13T23:18:09.687Z,4.07
2022-11-13T23:20:54.848Z,4.09
2022-11-13T23:23:43.631Z,4.13
2022-11-13T23:26:32.199Z,4.17
2022-11-13T23:29:20.975Z,4.19
2022-11-13T23:32:09.694Z,4.13
2022-11-13T23:34:59.487Z,4.08
2022-11-13T23:37:48.523Z,4.14
2022-11-13T23:40:37.191Z,4.17
2022-11-13T23:43:47.349Z,4.08
2022-11-13T23:46:16.840Z,4.12
2022-11-13T23:49:05.301Z,4.05
2022-11-13T23:51:54.320Z,3.97
2022-11-13T23:54:43.058Z,3.87
2022-11-13T23:57:31.846Z,3.76
